Time;durP1;ratioP1;P1;durP2;ratioP2;P2;SDS_P1;SDS_P2;PMS_P1;PMS_P2;Temp;Humidity;BMP_temperature;BMP_pressure;BME280_temperature;BME280_humidity;BME280_pressure;Samples;Min_cycle;Max_cycle;Signal;HPM_P1;HPM_P2
2022/12/16 00:00:45;;;;;;;24.48;14.00;;;-1.80;99.90;;;;;;7402380;19;19990;-62
2022/12/16 00:03:14;;;;;;;26.73;12.80;;;-1.80;99.90;;;;;;7405124;19;19977;-62
2022/12/16 00:05:43;;;;;;;25.08;13.80;;;-0.90;99.90;;;;;;7404463;19;20411;-62
2022/12/16 00:08:12;;;;;;;27.95;13.90;;;-1.80;99.90;;;;;;7403786;19;20310;-63
2022/12/16 00:13:26;;;;;;;28.73;13.45;;;-1.30;99.90;;;;;;7404309;19;19926;-61
2022/12/16 00:15:55;;;;;;;26.35;13.43;;;-0.70;99.90;;;;;;7403935;19;19982;-62
2022/12/16 00:18:24;;;;;;;25.73;13.20;;;-1.60;99.90;;;;;;7402159;19;20410;-62
2022/12/16 00:20:55;;;;;;;25.13;13.63;;;-1.00;99.90;;;;;;7402369;19;19937;-62
2022/12/16 00:23:25;;;;;;;26.77;13.80;;;-0.40;99.90;;;;;;7398905;19;20334;-62
2022/12/16 00:25:54;;;;;;;28.88;13.50;;;-1.40;99.90;;;;;;7401171;19;19942;-62
2022/12/16 00:28:27;;;;;;;24.33;13.20;;;-0.30;99.90;;;;;;7403439;19;20313;-62
2022/12/16 00:30:57;;;;;;;27.65;13.60;;;-0.30;99.90;;;;;;7401182;19;19918;-62
2022/12/16 00:33:28;;;;;;;24.58;12.23;;;-1.30;99.90;;;;;;7405746;19;19932;-62
2022/12/16 00:35:58;;;;;;;26.50;12.48;;;-1.70;99.90;;;;;;7403614;19;19979;-62
2022/12/16 00:38:28;;;;;;;28.60;12.68;;;-0.40;99.90;;;;;;7399809;19;20273;-62
2022/12/16 00:40:59;;;;;;;21.95;12.57;;;-0.90;99.90;;;;;;7397248;19;19981;-62
2022/12/16 00:43:31;;;;;;;23.50;12.55;;;-0.90;99.90;;;;;;7402813;19;19986;-62
2022/12/16 00:46:02;;;;;;;21.92;12.10;;;-1.70;99.90;;;;;;7401414;19;19958;-62
2022/12/16 00:48:31;;;;;;;25.70;12.07;;;-0.40;99.90;;;;;;7403205;19;20356;-62
2022/12/16 00:51:03;;;;;;;22.75;12.15;;;-1.20;99.90;;;;;;7399741;19;20412;-62
2022/12/16 00:53:34;;;;;;;24.77;13.35;;;-0.80;99.90;;;;;;7404463;19;20235;-63
2022/12/16 00:56:05;;;;;;;24.55;13.77;;;-1.20;99.90;;;;;;7400874;19;19923;-63
2022/12/16 00:58:43;;;;;;;25.75;14.27;;;-1.80;99.90;;;;;;7400472;19;20341;-63
2022/12/16 01:01:12;;;;;;;28.38;14.82;;;-0.90;99.90;;;;;;7406330;19;19926;-63
2022/12/16 01:03:42;;;;;;;26.90;13.77;;;-0.60;99.90;;;;;;7405630;19;19961;-63
2022/12/16 01:06:13;;;;;;;24.33;13.30;;;-0.30;99.90;;;;;;7405468;19;19922;-63
2022/12/16 01:08:47;;;;;;;22.98;12.32;;;-0.40;99.90;;;;;;7397949;19;19946;-63
2022/12/16 01:11:17;;;;;;;30.70;14.02;;;-0.80;99.90;;;;;;7402365;19;19939;-63
2022/12/16 01:13:52;;;;;;;23.83;12.93;;;-1.60;99.90;;;;;;7402884;19;19926;-62
2022/12/16 01:16:21;;;;;;;27.30;13.68;;;-0.20;99.90;;;;;;7402740;19;19922;-63
2022/12/16 01:18:50;;;;;;;29.17;12.80;;;-0.80;99.90;;;;;;7399039;19;19986;-63
2022/12/16 01:21:19;;;;;;;23.58;12.60;;;-1.60;99.90;;;;;;7402614;19;19918;-63
2022/12/16 01:23:49;;;;;;;27.15;12.93;;;-1.50;99.90;;;;;;7391334;19;20318;-63
2022/12/16 01:26:20;;;;;;;28.88;13.10;;;-1.10;99.90;;;;;;7402395;19;19922;-63
2022/12/16 01:28:52;;;;;;;23.27;12.98;;;-0.70;99.90;;;;;;7403880;19;19931;-62
2022/12/16 01:31:23;;;;;;;29.42;13.25;;;-0.90;99.90;;;;;;7401539;19;19938;-64
2022/12/16 01:33:52;;;;;;;24.15;12.68;;;-0.10;99.90;;;;;;7401188;19;19918;-63
2022/12/16 01:36:23;;;;;;;25.70;13.48;;;-0.50;99.90;;;;;;7403475;19;19946;-63
2022/12/16 01:38:52;;;;;;;22.50;11.68;;;-0.70;99.90;;;;;;7403627;19;19947;-63
2022/12/16 01:41:22;;;;;;;23.42;13.07;;;-0.40;99.90;;;;;;7396656;19;20286;-63
2022/12/16 01:43:54;;;;;;;20.92;11.70;;;-0.20;99.90;;;;;;7408267;19;19914;-63
2022/12/16 01:46:26;;;;;;;23.30;12.60;;;-0.70;99.90;;;;;;7408372;19;19923;-63
2022/12/16 01:49:00;;;;;;;23.80;12.30;;;-0.20;99.90;;;;;;7407329;19;20341;-63
2022/12/16 01:51:33;;;;;;;25.38;12.73;;;-1.30;99.90;;;;;;7408225;19;20369;-63
2022/12/16 01:54:07;;;;;;;23.88;13.55;;;-0.10;99.90;;;;;;7408667;19;20336;-62
2022/12/16 01:56:38;;;;;;;23.08;13.00;;;-0.80;99.90;;;;;;7401582;19;19992;-63
2022/12/16 01:59:10;;;;;;;23.88;13.40;;;-1.50;99.90;;;;;;7406641;19;19990;-63
2022/12/16 02:01:40;;;;;;;25.65;13.27;;;-1.00;99.90;;;;;;7407823;19;19933;-63
2022/12/16 02:04:09;;;;;;;27.45;14.13;;;-1.50;99.90;;;;;;7407844;19;19942;-63
2022/12/16 02:06:40;;;;;;;28.00;13.95;;;-1.50;99.90;;;;;;7409531;19;20268;-63
2022/12/16 02:09:15;;;;;;;23.92;12.80;;;-1.10;99.90;;;;;;7409903;19;19953;-63
2022/12/16 02:12:21;;;;;;;22.10;13.07;;;-1.50;99.90;;;;;;7407405;19;19926;-63
2022/12/16 02:15:11;;;;;;;28.33;14.15;;;-0.80;99.90;;;;;;7408632;19;19974;-63
2022/12/16 02:17:52;;;;;;;25.70;13.13;;;-1.30;99.90;;;;;;7405900;19;19964;-63
2022/12/16 02:21:05;;;;;;;25.20;11.90;;;-0.60;99.90;;;;;;7404044;19;19922;-62
2022/12/16 02:24:02;;;;;;;22.38;12.65;;;-1.50;99.90;;;;;;7396302;19;20350;-63
2022/12/16 02:26:59;;;;;;;25.33;12.95;;;-0.80;99.90;;;;;;7402372;19;20028;-63
2022/12/16 02:29:51;;;;;;;26.90;12.98;;;-0.70;99.90;;;;;;7406865;19;19926;-63
2022/12/16 02:32:32;;;;;;;23.85;12.93;;;-0.70;99.90;;;;;;7407936;19;19929;-63
2022/12/16 02:35:18;;;;;;;22.77;12.40;;;-1.00;99.90;;;;;;7409585;19;20318;-64
2022/12/16 02:37:58;;;;;;;29.85;13.15;;;0.10;99.90;;;;;;7410243;19;19923;-63
2022/12/16 02:40:34;;;;;;;27.50;14.13;;;-1.40;99.90;;;;;;7401772;19;19926;-63
2022/12/16 02:43:08;;;;;;;28.50;13.48;;;-0.40;99.90;;;;;;7409465;19;19923;-62
2022/12/16 02:45:38;;;;;;;32.50;13.48;;;-0.70;99.90;;;;;;7406851;19;19915;-63
2022/12/16 02:48:10;;;;;;;27.88;15.35;;;-0.60;99.90;;;;;;7407493;19;19925;-63
2022/12/16 02:50:44;;;;;;;26.10;14.02;;;-0.60;99.90;;;;;;7396674;19;20107;-62
2022/12/16 02:53:13;;;;;;;25.55;14.10;;;-0.20;99.90;;;;;;7408632;19;20342;-62
2022/12/16 02:55:54;;;;;;;26.95;14.35;;;-1.00;99.90;;;;;;7398251;19;20362;-62
2022/12/16 02:58:29;;;;;;;28.10;13.75;;;-0.20;99.90;;;;;;7402914;19;20387;-63
2022/12/16 03:01:08;;;;;;;29.83;15.05;;;-1.10;99.90;;;;;;7405754;19;20014;-63
2022/12/16 03:03:46;;;;;;;26.33;13.40;;;-1.00;99.90;;;;;;7409195;19;19925;-63
2022/12/16 03:06:20;;;;;;;27.60;14.40;;;-1.10;99.90;;;;;;7412325;19;20310;-63
2022/12/16 03:08:54;;;;;;;29.20;15.48;;;-0.90;99.90;;;;;;7406006;19;20338;-64
2022/12/16 03:11:26;;;;;;;31.25;15.20;;;-1.50;99.90;;;;;;7407633;19;19926;-61
2022/12/16 03:14:05;;;;;;;27.65;14.23;;;-1.80;99.90;;;;;;7411387;19;19919;-63
2022/12/16 03:16:35;;;;;;;28.23;15.10;;;-1.50;99.90;;;;;;7404638;19;19927;-64
2022/12/16 03:19:11;;;;;;;26.75;14.45;;;-1.50;99.90;;;;;;7403720;19;20400;-62
2022/12/16 03:21:47;;;;;;;29.30;14.55;;;-0.40;99.90;;;;;;7408082;19;19994;-63
2022/12/16 03:24:16;;;;;;;31.25;15.80;;;-0.60;99.90;;;;;;7406931;19;19918;-63
2022/12/16 03:26:53;;;;;;;24.92;15.52;;;-1.70;99.90;;;;;;7406499;19;19915;-63
2022/12/16 03:29:29;;;;;;;29.17;15.40;;;-1.00;99.90;;;;;;7406595;19;19934;-63
2022/12/16 03:32:02;;;;;;;28.00;15.30;;;-1.70;99.90;;;;;;7407228;19;19938;-63
2022/12/16 03:34:38;;;;;;;34.03;14.48;;;-1.10;99.90;;;;;;7406991;19;19914;-63
2022/12/16 03:37:10;;;;;;;29.50;14.80;;;-1.60;99.90;;;;;;7399043;19;20269;-63
2022/12/16 03:39:43;;;;;;;26.08;12.65;;;-2.00;99.90;;;;;;7406101;19;19918;-63
2022/12/16 03:42:15;;;;;;;29.42;14.73;;;-1.10;99.90;;;;;;7405212;19;19919;-62
2022/12/16 03:44:45;;;;;;;29.00;15.23;;;-1.10;99.90;;;;;;7406405;19;19930;-63
2022/12/16 03:47:14;;;;;;;29.67;14.73;;;-0.70;99.90;;;;;;7407782;19;19926;-63
2022/12/16 03:49:47;;;;;;;33.58;15.45;;;-0.60;99.90;;;;;;7405807;19;19932;-63
2022/12/16 03:52:16;;;;;;;;;;;-1.10;99.90;;;;;;7362965;19;20374;-63
2022/12/16 03:54:45;;;;;;;27.23;14.32;;;-1.20;99.90;;;;;;7405597;19;19951;-63
2022/12/16 03:57:14;;;;;;;28.02;13.55;;;-1.50;99.90;;;;;;7404373;19;20191;-63
2022/12/16 03:59:43;;;;;;;27.52;14.68;;;-0.30;99.90;;;;;;7404917;19;20345;-63
2022/12/16 04:02:15;;;;;;;32.10;14.90;;;-0.60;99.90;;;;;;7401367;19;20023;-63
2022/12/16 04:04:47;;;;;;;27.88;14.55;;;-0.80;99.90;;;;;;7402553;19;20315;-63
2022/12/16 04:07:24;;;;;;;31.08;14.68;;;-0.70;99.90;;;;;;7404329;19;19922;-63
2022/12/16 04:09:54;;;;;;;32.35;15.15;;;-1.50;99.90;;;;;;7400584;19;19946;-63
2022/12/16 04:26:22;;;;;;;27.42;13.90;;;-0.70;99.90;;;;;;7404282;19;19934;-62
2022/12/16 04:28:51;;;;;;;25.45;13.15;;;-1.50;99.90;;;;;;7401518;19;19933;-62
2022/12/16 04:31:21;;;;;;;26.15;13.38;;;-1.70;99.90;;;;;;7404066;19;19918;-62
